Time;durP1;ratioP1;P1;durP2;ratioP2;P2;SDS_P1;SDS_P2;PMS_P1;PMS_P2;Temp;Humidity;BMP_temperature;BMP_pressure;BME280_temperature;BME280_humidity;BME280_pressure;Samples;Min_cycle;Max_cycle;Signal;HPM_P1;HPM_P2
2023/03/28 01:00:17;;;;;;;0.28;0.28;;;;;;;10.09;56.47;102665.13;5038861;28;20076;-69
2023/03/28 01:02:49;;;;;;;0.30;0.30;;;;;;;10.49;55.76;102662.22;5012220;28;20037;-70
2023/03/28 01:05:16;;;;;;;0.30;0.30;;;;;;;10.62;54.65;102669.66;5012124;28;20038;-71
2023/03/28 01:07:48;;;;;;;0.30;0.30;;;;;;;10.53;55.42;102662.69;5018770;28;20041;-71
2023/03/28 01:10:13;;;;;;;0.30;0.30;;;;;;;10.91;54.36;102658.16;5031897;28;20028;-70
2023/03/28 01:12:42;;;;;;;0.30;0.30;;;;;;;10.88;54.09;102655.81;5031554;28;20353;-70
2023/03/28 01:15:08;;;;;;;0.20;0.20;;;;;;;10.93;54.08;102648.84;5031753;28;20037;-71
2023/03/28 01:17:34;;;;;;;0.30;0.30;;;;;;;10.53;55.36;102651.94;5032002;28;20026;-70
2023/03/28 01:20:25;;;;;;;0.40;0.40;;;;;;;11.14;53.88;102656.22;5031560;28;20029;-70
2023/03/28 01:23:15;;;;;;;0.43;0.43;;;;;;;11.21;53.69;102646.38;5030829;28;20041;-71
2023/03/28 01:25:59;;;;;;;0.30;0.30;;;;;;;10.82;54.41;102645.78;5031664;28;20112;-71
2023/03/28 01:29:03;;;;;;;0.20;0.20;;;;;;;11.04;54.14;102647.59;5032349;28;20025;-71
2023/03/28 01:31:38;;;;;;;0.30;0.30;;;;;;;10.76;55.60;102641.97;5031252;28;20052;-70
2023/03/28 01:34:36;;;;;;;0.30;0.30;;;;;;;11.27;52.89;102645.63;5031559;28;20061;-70
2023/03/28 01:37:22;;;;;;;0.30;0.30;;;;;;;11.09;53.10;102646.00;5031572;28;20070;-70
2023/03/28 01:40:10;;;;;;;0.20;0.20;;;;;;;11.30;52.39;102635.31;5031661;28;20132;-71
2023/03/28 01:42:53;;;;;;;0.30;0.30;;;;;;;11.11;52.65;102640.44;5031641;28;20033;-70
2023/03/28 01:45:48;;;;;;;0.30;0.30;;;;;;;11.05;52.68;102639.31;5031628;28;20516;-70
2023/03/28 01:48:32;;;;;;;0.30;0.30;;;;;;;11.16;53.36;102646.91;5013892;28;20373;-70
2023/03/28 01:51:19;;;;;;;0.40;0.40;;;;;;;10.96;53.67;102639.59;5011717;28;20037;-71
2023/03/28 01:53:51;;;;;;;0.30;0.30;;;;;;;10.79;54.04;102638.91;5014501;28;20111;-70
2023/03/28 01:56:36;;;;;;;0.40;0.40;;;;;;;10.75;54.12;102640.28;5031189;28;20637;-70
2023/03/28 01:59:12;;;;;;;0.30;0.30;;;;;;;10.40;55.70;102644.47;5011843;28;20042;-70
2023/03/28 02:01:54;;;;;;;0.20;0.20;;;;;;;10.73;55.00;102638.81;5019498;28;20057;-71
2023/03/28 02:04:23;;;;;;;0.20;0.20;;;;;;;10.28;56.37;102637.03;5024873;28;20485;-70
2023/03/28 02:06:51;;;;;;;0.40;0.40;;;;;;;10.31;56.40;102629.44;5048158;28;20049;-71
2023/03/28 02:09:20;;;;;;;0.22;0.22;;;;;;;9.92;57.62;102639.41;5050959;28;20492;-71
2023/03/28 02:11:48;;;;;;;0.30;0.30;;;;;;;9.81;57.70;102638.97;5061269;28;20090;-70
2023/03/28 02:14:17;;;;;;;0.30;0.30;;;;;;;10.02;57.40;102640.00;5071095;28;20036;-72
2023/03/28 02:16:44;;;;;;;0.30;0.30;;;;;;;10.08;56.90;102642.00;5071494;28;20043;-71
2023/03/28 02:19:12;;;;;;;0.40;0.40;;;;;;;9.65;58.11;102635.34;5065892;28;20048;-70
2023/03/28 02:21:50;;;;;;;0.30;0.30;;;;;;;10.15;55.71;102631.38;5071058;28;20123;-71
2023/03/28 02:24:15;;;;;;;0.28;0.28;;;;;;;10.03;56.79;102640.81;5063751;28;20116;-71
2023/03/28 02:26:42;;;;;;;0.45;0.45;;;;;;;10.11;56.33;102646.19;5042187;28;20124;-71
2023/03/28 02:29:09;;;;;;;0.40;0.40;;;;;;;10.22;56.01;102641.22;5035575;28;20195;-70
2023/03/28 02:31:35;;;;;;;0.40;0.40;;;;;;;10.35;55.18;102644.19;5049311;28;20404;-71
2023/03/28 02:34:01;;;;;;;0.30;0.30;;;;;;;10.59;54.18;102635.06;5037370;28;20068;-70
2023/03/28 02:36:51;;;;;;;0.40;0.40;;;;;;;10.68;54.59;102633.13;5054518;28;20406;-70
2023/03/28 02:39:37;;;;;;;0.40;0.40;;;;;;;10.56;54.67;102627.34;5054614;28;20497;-71
2023/03/28 02:42:40;;;;;;;0.32;0.32;;;;;;;10.43;55.48;102632.53;5054941;28;20377;-71
2023/03/28 02:45:32;;;;;;;0.30;0.30;;;;;;;10.50;55.42;102638.84;5054469;28;20041;-70
2023/03/28 02:48:16;;;;;;;0.40;0.40;;;;;;;10.82;54.06;102632.34;5054410;28;20044;-70
2023/03/28 02:51:05;;;;;;;0.30;0.30;;;;;;;11.09;53.06;102629.00;5054548;28;20037;-71
2023/03/28 02:53:39;;;;;;;0.30;0.30;;;;;;;10.78;53.92;102631.88;5054084;28;20056;-71
2023/03/28 02:56:32;;;;;;;0.30;0.30;;;;;;;10.37;56.15;102635.94;5054409;28;20082;-71
2023/03/28 02:59:06;;;;;;;0.40;0.40;;;;;;;10.18;56.64;102631.03;4973146;28;20539;-71
2023/03/28 03:01:32;;;;;;;0.40;0.40;;;;;;;9.89;56.92;102636.22;4973123;28;20057;-71
2023/03/28 03:03:59;;;;;;;0.38;0.38;;;;;;;9.82;57.09;102628.03;4972924;28;20047;-71
2023/03/28 03:06:24;;;;;;;0.35;0.35;;;;;;;9.68;57.16;102623.41;4972605;28;20054;-70
2023/03/28 03:08:50;;;;;;;0.20;0.20;;;;;;;9.30;57.87;102626.94;4972751;28;20680;-71
2023/03/28 03:11:15;;;;;;;0.40;0.40;;;;;;;9.53;57.16;102625.19;4973143;28;20070;-71
2023/03/28 03:13:42;;;;;;;0.50;0.50;;;;;;;9.65;56.00;102626.47;4972813;28;20118;-70
2023/03/28 03:16:08;;;;;;;0.30;0.30;;;;;;;9.50;56.35;102628.19;4972797;28;20057;-69
2023/03/28 03:18:34;;;;;;;0.30;0.30;;;;;;;9.79;55.43;102628.38;4972454;28;20071;-71
2023/03/28 03:21:00;;;;;;;0.35;0.35;;;;;;;9.61;56.35;102627.84;4972341;28;20510;-71
2023/03/28 03:23:26;;;;;;;0.40;0.40;;;;;;;9.27;57.15;102628.13;4972369;28;20042;-71
2023/03/28 03:25:51;;;;;;;0.40;0.40;;;;;;;9.58;56.01;102630.84;4972442;28;20125;-70
2023/03/28 03:28:17;;;;;;;0.22;0.22;;;;;;;9.23;57.44;102626.81;4972936;28;20062;-71
2023/03/28 03:30:43;;;;;;;0.35;0.35;;;;;;;9.20;57.08;102635.19;4972487;28;20069;-70
2023/03/28 03:33:09;;;;;;;0.30;0.30;;;;;;;8.39;59.84;102645.16;4972267;28;20059;-70
2023/03/28 03:35:35;;;;;;;0.45;0.45;;;;;;;8.30;59.97;102643.50;5002240;28;20067;-69
2023/03/28 03:38:01;;;;;;;0.20;0.20;;;;;;;8.79;59.00;102641.63;5053197;28;20041;-71
2023/03/28 03:40:27;;;;;;;0.40;0.40;;;;;;;8.32;60.14;102644.16;5053937;28;20033;-72
2023/03/28 03:42:52;;;;;;;0.38;0.38;;;;;;;7.82;62.16;102644.19;5053394;28;20029;-71
2023/03/28 03:45:17;;;;;;;0.30;0.30;;;;;;;8.06;59.95;102647.97;5034235;28;20044;-71
2023/03/28 03:47:43;;;;;;;0.40;0.40;;;;;;;8.08;60.48;102651.31;5053312;28;20401;-71
2023/03/28 03:50:09;;;;;;;0.30;0.30;;;;;;;8.65;58.75;102643.16;5034047;28;20033;-71
2023/03/28 03:52:35;;;;;;;0.40;0.40;;;;;;;8.23;59.29;102658.53;5053916;28;20040;-70
2023/03/28 03:55:00;;;;;;;0.30;0.30;;;;;;;7.87;60.67;102651.75;5053762;28;20045;-70
2023/03/28 03:57:26;;;;;;;0.50;0.50;;;;;;;8.46;59.03;102656.06;5053152;28;20120;-70
2023/03/28 03:59:51;;;;;;;0.32;0.32;;;;;;;8.13;59.31;102646.28;5052872;28;20060;-71
2023/03/28 04:02:17;;;;;;;0.30;0.30;;;;;;;8.26;58.96;102657.38;5052886;28;20041;-72
2023/03/28 04:04:44;;;;;;;0.40;0.40;;;;;;;7.97;60.80;102655.97;5052660;28;20500;-71
2023/03/28 04:07:11;;;;;;;0.30;0.30;;;;;;;7.40;62.25;102654.09;5053261;28;20036;-70
2023/03/28 04:09:36;;;;;;;0.30;0.30;;;;;;;8.34;59.28;102657.38;5052704;28;20041;-69
2023/03/28 04:12:02;;;;;;;0.40;0.40;;;;;;;8.16;59.11;102651.28;5052733;28;20040;-71
2023/03/28 04:14:27;;;;;;;0.40;0.40;;;;;;;8.32;59.22;102654.03;5052934;28;20033;-70
2023/03/28 04:16:53;;;;;;;0.40;0.40;;;;;;;8.05;59.21;102659.66;5052991;28;20068;-69
2023/03/28 04:19:19;;;;;;;0.30;0.30;;;;;;;8.55;58.34;102658.56;5053465;28;20413;-69
2023/03/28 04:21:47;;;;;;;0.30;0.30;;;;;;;8.36;58.28;102658.91;5052808;28;20087;-70
2023/03/28 04:24:16;;;;;;;0.30;0.30;;;;;;;8.49;58.62;102658.41;5052260;28;20044;-71
2023/03/28 04:26:44;;;;;;;0.30;0.30;;;;;;;8.61;57.04;102651.69;5052661;28;20102;-71
2023/03/28 04:29:11;;;;;;;0.30;0.30;;;;;;;8.52;58.03;102658.91;5052925;28;20039;-71
2023/03/28 04:31:38;;;;;;;0.30;0.30;;;;;;;8.31;58.77;102658.56;5052631;28;20082;-70
2023/03/28 04:34:04;;;;;;;0.47;0.47;;;;;;;8.44;58.36;102658.06;5052775;28;20037;-71
2023/03/28 04:36:31;;;;;;;0.32;0.32;;;;;;;8.61;57.50;102665.09;5052686;28;20036;-70
2023/03/28 04:39:01;;;;;;;0.38;0.38;;;;;;;8.39;58.24;102660.41;5052345;28;20041;-71
2023/03/28 04:41:28;;;;;;;0.47;0.47;;;;;;;8.20;58.16;102658.00;5052645;28;20047;-72
2023/03/28 04:43:53;;;;;;;0.32;0.32;;;;;;;8.22;58.55;102662.19;5052456;28;20160;-70
2023/03/28 04:46:18;;;;;;;0.30;0.30;;;;;;;8.12;58.58;102666.88;5034942;28;20112;-71
2023/03/28 04:48:45;;;;;;;0.30;0.30;;;;;;;8.25;58.97;102669.94;5052310;28;20052;-70
2023/03/28 04:51:11;;;;;;;0.32;0.32;;;;;;;7.77;59.60;102670.63;5052438;28;20041;-70
2023/03/28 04:53:37;;;;;;;0.40;0.40;;;;;;;8.30;58.54;102662.25;5051891;28;20115;-71
2023/03/28 04:56:02;;;;;;;0.30;0.30;;;;;;;8.29;58.98;102671.28;5052046;28;20039;-72
2023/03/28 04:58:27;;;;;;;0.38;0.38;;;;;;;8.41;57.75;102674.50;5052690;28;20028;-71
2023/03/28 05:00:53;;;;;;;0.20;0.20;;;;;;;8.53;57.44;102673.16;5051852;28;20144;-70
2023/03/28 05:03:21;;;;;;;0.38;0.38;;;;;;;8.69;57.02;102663.25;5051798;28;20122;-71
2023/03/28 05:05:48;;;;;;;0.50;0.50;;;;;;;8.41;57.35;102669.94;5051982;28;20044;-71
2023/03/28 05:08:16;;;;;;;0.30;0.30;;;;;;;8.50;57.46;102668.13;5052184;28;20103;-72
2023/03/28 05:10:43;;;;;;;0.20;0.20;;;;;;;8.43;57.64;102669.81;5051957;28;20059;-71
2023/03/28 05:13:08;;;;;;;0.30;0.30;;;;;;;8.60;57.07;102666.13;5033756;28;20396;-71
2023/03/28 05:15:34;;;;;;;0.50;0.50;;;;;;;8.56;56.59;102670.97;5051640;28;20141;-70
2023/03/28 05:17:59;;;;;;;0.40;0.40;;;;;;;8.34;56.87;102670.78;5051825;28;20037;-70
2023/03/28 05:20:25;;;;;;;0.20;0.20;;;;;;;8.48;56.63;102675.47;5052056;28;20123;-72
2023/03/28 05:22:51;;;;;;;0.30;0.30;;;;;;;8.33;57.34;102683.34;5051627;28;20033;-70
2023/03/28 05:25:18;;;;;;;0.30;0.30;;;;;;;8.33;57.36;102680.69;5052581;28;20048;-71
2023/03/28 05:27:44;;;;;;;0.40;0.40;;;;;;;8.41;56.81;102677.97;5051645;28;20048;-71
2023/03/28 05:30:10;;;;;;;0.50;0.50;;;;;;;8.38;57.13;102678.31;5052009;28;20396;-72
2023/03/28 05:32:38;;;;;;;0.32;0.32;;;;;;;8.35;57.10;102670.63;5051394;28;20044;-70
2023/03/28 05:35:06;;;;;;;0.30;0.30;;;;;;;8.25;56.86;102677.13;5051212;28;20492;-70
2023/03/28 05:37:31;;;;;;;0.32;0.32;;;;;;;8.36;57.06;102679.50;5050870;28;20029;-72
2023/03/28 05:39:57;;;;;;;0.25;0.25;;;;;;;8.37;57.01;102686.53;5051245;28;20497;-71
2023/03/28 05:42:22;;;;;;;0.43;0.43;;;;;;;8.37;56.96;102691.88;5049425;28;20388;-72
2023/03/28 05:44:47;;;;;;;0.38;0.38;;;;;;;8.46;57.00;102694.41;5050120;28;20612;-71
2023/03/28 05:47:13;;;;;;;0.47;0.47;;;;;;;8.43;56.00;102688.56;5049682;28;20033;-70
2023/03/28 05:49:38;;;;;;;0.30;0.30;;;;;;;8.46;56.61;102691.72;5049705;28;20056;-71
2023/03/28 05:52:04;;;;;;;0.30;0.30;;;;;;;8.37;56.43;102694.56;5050101;28;20110;-70
2023/03/28 05:54:29;;;;;;;0.30;0.30;;;;;;;8.32;56.52;102691.53;5050142;28;20624;-70
2023/03/28 05:56:54;;;;;;;0.47;0.47;;;;;;;8.35;56.35;102696.56;5050916;28;20033;-70
2023/03/28 05:59:23;;;;;;;0.40;0.40;;;;;;;8.22;56.90;102688.13;5050941;28;20123;-71
2023/03/28 06:01:51;;;;;;;0.50;0.50;;;;;;;8.27;57.69;102684.00;5041462;28;20529;-71
2023/03/28 06:04:17;;;;;;;0.30;0.30;;;;;;;8.44;56.92;102692.88;5058253;28;20491;-70
2023/03/28 06:06:44;;;;;;;0.32;0.32;;;;;;;8.53;56.31;102687.38;5055022;28;20035;-70
2023/03/28 06:09:09;;;;;;;0.47;0.47;;;;;;;8.70;55.96;102689.06;5058288;28;20045;-71
2023/03/28 06:11:35;;;;;;;0.40;0.40;;;;;;;8.81;56.16;102696.75;5054589;28;20064;-71
2023/03/28 06:14:00;;;;;;;0.30;0.30;;;;;;;8.84;56.45;102700.97;5052158;28;20041;-69
2023/03/28 06:16:25;;;;;;;0.43;0.43;;;;;;;8.88;56.62;102705.78;5043503;28;20470;-70
2023/03/28 06:18:51;;;;;;;0.40;0.40;;;;;;;9.05;56.16;102692.38;5034107;28;20052;-70
2023/03/28 06:21:16;;;;;;;0.50;0.50;;;;;;;9.19;55.82;102705.09;5053661;28;20041;-72
2023/03/28 06:23:42;;;;;;;0.40;0.40;;;;;;;9.34;55.42;102704.22;5053711;28;20043;-70
2023/03/28 06:26:07;;;;;;;0.30;0.30;;;;;;;9.32;55.25;102708.91;5050533;28;20393;-71
2023/03/28 06:28:32;;;;;;;0.30;0.30;;;;;;;9.29;55.28;102701.22;5045604;28;20387;-71
2023/03/28 06:30:58;;;;;;;0.30;0.30;;;;;;;9.43;55.30;102700.53;5054058;28;20048;-70
2023/03/28 06:33:23;;;;;;;0.30;0.30;;;;;;;9.53;55.05;102697.63;5045628;28;20048;-72
2023/03/28 06:35:48;;;;;;;0.28;0.28;;;;;;;9.53;54.99;102697.63;5040548;28;20480;-70
2023/03/28 06:38:14;;;;;;;0.40;0.40;;;;;;;9.66;55.68;102697.91;5025890;28;20119;-70
2023/03/28 06:40:39;;;;;;;0.40;0.40;;;;;;;9.60;55.12;102699.44;5040910;28;20595;-72
2023/03/28 06:43:04;;;;;;;0.30;0.30;;;;;;;9.73;55.34;102699.72;5049709;28;20025;-72
2023/03/28 06:45:30;;;;;;;0.35;0.35;;;;;;;9.85;54.63;102692.13;5029339;28;20068;-71
2023/03/28 06:47:55;;;;;;;0.30;0.30;;;;;;;9.90;55.16;102686.22;5050635;28;20487;-71
2023/03/28 06:50:21;;;;;;;0.30;0.30;;;;;;;10.04;55.01;102691.72;5044943;28;20072;-72
2023/03/28 06:52:46;;;;;;;0.38;0.38;;;;;;;10.02;54.60;102698.25;5031375;28;20041;-71
2023/03/28 06:55:11;;;;;;;0.30;0.30;;;;;;;10.11;54.75;102694.53;5045271;28;20037;-71
2023/03/28 06:57:37;;;;;;;0.40;0.40;;;;;;;10.37;54.72;102700.41;5047443;28;20041;-72
2023/03/28 07:00:06;;;;;;;0.47;0.47;;;;;;;10.38;54.34;102700.25;5048393;28;20087;-71
2023/03/28 07:02:31;;;;;;;0.20;0.20;;;;;;;10.41;54.57;102694.53;5050145;28;20381;-70
2023/03/28 07:04:57;;;;;;;0.40;0.40;;;;;;;10.47;54.76;102703.72;5048933;28;20048;-72
2023/03/28 07:07:22;;;;;;;0.30;0.30;;;;;;;10.29;55.58;102701.31;5047691;28;20032;-70
2023/03/28 07:09:50;;;;;;;0.30;0.30;;;;;;;10.52;54.74;102696.78;5050716;28;20047;-72
2023/03/28 07:12:17;;;;;;;0.30;0.30;;;;;;;10.69;54.33;102694.81;5032458;28;20425;-73
2023/03/28 07:14:43;;;;;;;0.30;0.30;;;;;;;9.80;55.64;102694.50;5049818;28;20124;-72
2023/03/28 07:17:11;;;;;;;0.32;0.32;;;;;;;10.78;53.81;102703.63;5045165;28;20052;-71
2023/03/28 07:19:37;;;;;;;0.22;0.22;;;;;;;10.72;53.52;102707.88;5046347;28;20032;-70
2023/03/28 07:22:02;;;;;;;0.30;0.30;;;;;;;10.70;52.58;102701.84;5050285;28;20184;-72
2023/03/28 07:24:28;;;;;;;0.20;0.20;;;;;;;10.11;52.40;102703.44;5050582;28;20039;-71
2023/03/28 07:26:54;;;;;;;0.30;0.30;;;;;;;9.84;52.20;102709.25;5050367;28;20033;-72
2023/03/28 07:29:19;;;;;;;0.40;0.40;;;;;;;9.94;52.45;102704.50;5049852;28;20041;-72
2023/03/28 07:31:45;;;;;;;0.30;0.30;;;;;;;10.70;50.67;102709.06;5050758;28;20024;-71
2023/03/28 07:34:10;;;;;;;0.35;0.35;;;;;;;9.68;51.94;102706.63;5050218;28;20037;-71
2023/03/28 07:36:37;;;;;;;0.32;0.32;;;;;;;9.73;51.89;102715.00;5050537;28;20041;-73
2023/03/28 07:39:03;;;;;;;0.20;0.20;;;;;;;9.75;51.35;102710.28;5050543;28;20669;-70
2023/03/28 07:41:29;;;;;;;0.40;0.40;;;;;;;9.90;51.75;102711.25;5050324;28;20036;-71
2023/03/28 07:43:54;;;;;;;0.30;0.30;;;;;;;9.72;52.15;102708.81;5049914;28;20099;-70
2023/03/28 07:46:20;;;;;;;0.30;0.30;;;;;;;9.93;51.63;102720.78;5044294;28;20036;-71
2023/03/28 07:48:45;;;;;;;0.22;0.22;;;;;;;9.77;52.25;102717.16;5049952;28;20386;-73
2023/03/28 07:51:11;;;;;;;0.40;0.40;;;;;;;10.21;51.15;102709.44;5050125;28;20036;-71
2023/03/28 07:53:37;;;;;;;0.30;0.30;;;;;;;10.32;50.07;102718.91;5030764;28;20036;-72
2023/03/28 07:56:03;;;;;;;0.20;0.20;;;;;;;10.39;49.89;102717.19;5049523;28;20389;-72
2023/03/28 07:58:29;;;;;;;0.30;0.30;;;;;;;11.07;49.13;102712.59;5050386;28;20036;-72
2023/03/28 08:00:55;;;;;;;0.40;0.40;;;;;;;10.65;48.37;102715.00;5048917;28;20056;-71
2023/03/28 08:03:22;;;;;;;0.32;0.32;;;;;;;10.70;48.37;102719.81;5048953;28;20546;-72
2023/03/28 08:05:51;;;;;;;0.30;0.30;;;;;;;10.59;48.94;102716.53;5033378;28;20044;-72
2023/03/28 08:08:18;;;;;;;0.22;0.22;;;;;;;10.95;47.75;102722.13;5043628;28;20040;-71
2023/03/28 08:10:46;;;;;;;0.30;0.30;;;;;;;10.69;48.29;102713.63;5052658;28;20052;-71
2023/03/28 08:13:11;;;;;;;0.20;0.20;;;;;;;10.45;47.49;102719.19;5047126;28;20115;-71
2023/03/28 08:15:37;;;;;;;0.30;0.30;;;;;;;11.20;47.39;102718.19;5052631;28;20051;-72
2023/03/28 08:18:02;;;;;;;0.30;0.30;;;;;;;10.62;49.00;102723.41;5034549;28;20075;-70
2023/03/28 08:20:28;;;;;;;0.20;0.20;;;;;;;10.78;48.53;102723.28;5052607;28;20458;-70
2023/03/28 08:22:53;;;;;;;0.30;0.30;;;;;;;10.95;48.22;102729.34;5052799;28;20045;-71
2023/03/28 08:25:19;;;;;;;0.40;0.40;;;;;;;10.46;48.73;102719.00;5052924;28;20049;-73
2023/03/28 08:27:44;;;;;;;0.28;0.28;;;;;;;10.46;48.41;102723.53;5052660;28;20120;-70
2023/03/28 08:30:10;;;;;;;0.30;0.30;;;;;;;10.57;48.63;102717.75;5052532;28;20389;-70
2023/03/28 08:32:36;;;;;;;0.60;0.60;;;;;;;10.54;46.98;102718.09;5052029;28;20037;-71
2023/03/28 08:35:01;;;;;;;0.20;0.20;;;;;;;11.19;45.91;102711.16;5039897;28;20041;-71
2023/03/28 08:37:28;;;;;;;0.25;0.25;;;;;;;11.15;46.51;102711.69;5032744;28;20029;-72
2023/03/28 08:39:53;;;;;;;0.20;0.20;;;;;;;10.64;47.34;102713.31;5049977;28;20086;-72
2023/03/28 08:42:50;;;;;;;0.20;0.20;;;;;;;11.29;46.03;102709.03;5052454;28;20037;-71
2023/03/28 08:45:31;;;;;;;0.30;0.30;;;;;;;11.42;45.38;102709.22;5052178;28;20033;-72
2023/03/28 08:48:00;;;;;;;0.30;0.30;;;;;;;11.16;45.73;102708.81;5052064;28;20396;-72
2023/03/28 08:50:36;;;;;;;0.25;0.25;;;;;;;11.62;43.70;102714.88;5052324;28;20059;-72
2023/03/28 08:53:03;;;;;;;0.30;0.30;;;;;;;11.00;44.41;102717.06;5052308;28;20186;-72
2023/03/28 08:55:37;;;;;;;0.25;0.25;;;;;;;12.15;41.12;102709.16;5052497;28;20068;-70
2023/03/28 08:58:03;;;;;;;0.20;0.20;;;;;;;10.98;41.25;102699.41;5052516;28;20040;-71
2023/03/28 09:00:37;;;;;;;0.20;0.20;;;;;;;11.21;41.98;102709.13;5051977;28;20053;-71
2023/03/28 09:03:12;;;;;;;0.20;0.20;;;;;;;12.22;39.03;102706.56;5052053;28;20105;-71
2023/03/28 09:05:47;;;;;;;0.30;0.30;;;;;;;12.64;38.82;102713.84;5052165;28;20033;-71
2023/03/28 09:08:41;;;;;;;0.30;0.30;;;;;;;11.80;42.13;102701.91;5051816;28;20033;-71
2023/03/28 09:11:31;;;;;;;0.30;0.30;;;;;;;11.37;42.51;102695.50;5052005;28;20053;-72
2023/03/28 09:14:08;;;;;;;0.30;0.30;;;;;;;12.75;39.26;102692.59;5052121;28;20064;-70
2023/03/28 09:16:54;;;;;;;0.30;0.30;;;;;;;13.84;38.51;102687.28;5052139;28;20048;-71
2023/03/28 09:19:38;;;;;;;0.20;0.20;;;;;;;13.43;38.01;102689.16;5051804;28;20049;-71
2023/03/28 09:22:06;;;;;;;0.30;0.30;;;;;;;12.92;38.74;102693.13;5051702;28;20567;-73
2023/03/28 09:24:49;;;;;;;0.20;0.20;;;;;;;12.79;39.01;102690.31;5035738;28;20049;-71
2023/03/28 09:27:28;;;;;;;0.20;0.20;;;;;;;13.00;39.65;102690.28;5016857;28;20436;-70
2023/03/28 09:29:58;;;;;;;0.30;0.30;;;;;;;13.01;38.53;102692.78;5031718;28;20421;-71
2023/03/28 09:32:31;;;;;;;0.22;0.22;;;;;;;12.00;40.03;102692.22;5038253;28;20033;-71
2023/03/28 09:34:58;;;;;;;0.30;0.30;;;;;;;12.93;37.89;102690.22;5039493;28;20037;-70
2023/03/28 09:37:28;;;;;;;0.47;0.47;;;;;;;12.18;39.90;102694.50;5032085;28;20032;-71
2023/03/28 09:39:58;;;;;;;0.25;0.25;;;;;;;12.36;39.84;102686.81;5049282;28;20053;-71
2023/03/28 09:42:46;;;;;;;0.30;0.30;;;;;;;13.64;37.76;102678.25;5051630;28;20040;-70
2023/03/28 09:45:24;;;;;;;0.28;0.28;;;;;;;13.32;37.87;102672.69;5055527;28;20044;-70
2023/03/28 09:47:49;;;;;;;0.30;0.30;;;;;;;13.45;38.99;102664.63;5055751;28;20520;-70
2023/03/28 09:50:16;;;;;;;0.30;0.30;;;;;;;14.17;36.57;102671.16;5055387;28;20033;-71
2023/03/28 09:52:44;;;;;;;0.10;0.10;;;;;;;12.91;39.52;102669.88;5055355;28;20029;-70
2023/03/28 09:55:25;;;;;;;0.40;0.40;;;;;;;13.03;39.81;102671.00;5055734;28;20036;-71
2023/03/28 09:58:13;;;;;;;;;;;;;;;14.37;38.00;102665.88;5056026;28;20108;-70
2023/03/28 10:00:42;;;;;;;0.20;0.20;;;;;;;13.45;38.66;102668.19;4938073;29;19926;-71
2023/03/28 10:03:22;;;;;;;0.30;0.30;;;;;;;13.74;37.33;102664.38;4947550;29;20052;-71
2023/03/28 10:05:50;;;;;;;0.30;0.30;;;;;;;14.45;36.57;102658.38;4954485;28;20726;-72
2023/03/28 10:08:33;;;;;;;0.20;0.20;;;;;;;13.82;36.17;102664.19;4954305;29;20040;-70
2023/03/28 10:11:12;;;;;;;0.20;0.20;;;;;;;13.40;38.36;102662.56;4954384;29;20063;-70
2023/03/28 10:13:46;;;;;;;0.10;0.10;;;;;;;13.08;37.51;102666.72;4954441;29;20031;-70
2023/03/28 10:16:14;;;;;;;0.30;0.30;;;;;;;14.29;36.29;102660.66;4954733;29;20402;-71
2023/03/28 10:18:41;;;;;;;0.30;0.30;;;;;;;13.78;37.05;102658.38;4954176;29;20098;-72
2023/03/28 10:21:14;;;;;;;0.30;0.30;;;;;;;14.15;37.58;102651.63;4954191;29;20038;-71
2023/03/28 10:24:06;;;;;;;0.20;0.20;;;;;;;15.36;34.25;102643.94;4946844;28;20032;-70
2023/03/28 10:26:32;;;;;;;0.20;0.20;;;;;;;14.35;35.91;102638.19;4878496;29;20064;-71
2023/03/28 10:29:02;;;;;;;0.30;0.30;;;;;;;14.20;35.66;102635.63;4878370;29;20116;-72
2023/03/28 10:31:30;;;;;;;0.30;0.30;;;;;;;14.62;36.01;102640.69;4878717;29;20063;-70
2023/03/28 10:34:01;;;;;;;0.28;0.28;;;;;;;14.54;36.00;102629.25;4877071;29;20045;-71
2023/03/28 10:36:53;;;;;;;0.28;0.28;;;;;;;14.61;35.11;102636.31;4877783;29;20128;-71
2023/03/28 10:39:29;;;;;;;0.20;0.20;;;;;;;15.37;33.99;102625.81;4970397;28;20097;-72
2023/03/28 10:41:59;;;;;;;0.20;0.20;;;;;;;14.46;35.87;102611.34;4972571;28;20043;-71
2023/03/28 10:44:30;;;;;;;0.20;0.20;;;;;;;15.42;35.20;102607.91;4972600;28;20035;-71
2023/03/28 10:47:00;;;;;;;0.22;0.22;;;;;;;14.57;33.47;102601.75;4972413;28;20116;-69
2023/03/28 10:49:36;;;;;;;0.30;0.30;;;;;;;14.97;32.04;102606.09;4972479;28;20033;-72
2023/03/28 10:52:13;;;;;;;0.20;0.20;;;;;;;14.18;33.92;102604.41;4972701;28;20069;-71
2023/03/28 10:54:38;;;;;;;0.40;0.40;;;;;;;15.33;33.26;102592.88;4972123;28;20074;-70
2023/03/28 10:57:17;;;;;;;0.40;0.40;;;;;;;14.31;34.88;102593.66;4972362;28;20073;-71
2023/03/28 10:59:53;;;;;;;0.30;0.30;;;;;;;15.36;34.33;102594.31;4972234;28;20035;-70
2023/03/28 11:02:29;;;;;;;0.20;0.20;;;;;;;16.19;33.00;102585.16;4972268;28;20043;-70
2023/03/28 11:05:21;;;;;;;0.30;0.30;;;;;;;15.16;34.06;102574.59;5033356;28;20041;-72
2023/03/28 11:08:08;;;;;;;0.20;0.20;;;;;;;15.76;34.22;102572.28;4952649;29;20043;-70
2023/03/28 11:10:44;;;;;;;0.30;0.30;;;;;;;15.70;34.16;102577.75;4953201;29;20027;-70
2023/03/28 11:13:44;;;;;;;0.20;0.20;;;;;;;16.57;33.38;102572.34;4952701;29;20039;-71
2023/03/28 11:16:33;;;;;;;0.20;0.20;;;;;;;15.64;33.53;102567.78;4953062;29;20074;-70
2023/03/28 11:19:26;;;;;;;0.30;0.30;;;;;;;16.84;32.64;102562.91;4952232;29;20054;-72
2023/03/28 11:22:04;;;;;;;0.20;0.20;;;;;;;16.16;32.93;102555.75;4952587;29;20035;-71
2023/03/28 11:24:50;;;;;;;0.20;0.20;;;;;;;16.99;32.98;102546.22;4951843;29;20054;-71
2023/03/28 11:27:23;;;;;;;0.90;0.30;;;;;;;16.25;33.64;102554.44;4944022;29;20039;-71
2023/03/28 11:29:57;;;;;;;0.40;0.40;;;;;;;14.95;35.39;102548.63;4952367;29;20047;-71
2023/03/28 11:32:36;;;;;;;0.20;0.20;;;;;;;16.68;32.97;102539.06;4951356;29;20616;-71
2023/03/28 11:35:07;;;;;;;0.20;0.20;;;;;;;16.07;33.33;102544.34;4951671;29;20047;-70
2023/03/28 11:37:45;;;;;;;0.20;0.20;;;;;;;15.83;32.54;102537.84;4944842;29;20178;-71
2023/03/28 11:40:24;;;;;;;0.10;0.10;;;;;;;16.31;32.93;102529.16;4952242;28;20058;-71
2023/03/28 11:43:01;;;;;;;0.10;0.10;;;;;;;16.29;31.31;102529.38;4949522;29;20551;-72
2023/03/28 11:45:36;;;;;;;0.20;0.20;;;;;;;15.99;31.70;102528.34;5013602;28;20405;-71
2023/03/28 11:48:07;;;;;;;0.20;0.20;;;;;;;14.54;33.45;102523.75;5032893;28;20040;-70
2023/03/28 11:50:48;;;;;;;0.20;0.20;;;;;;;15.57;32.91;102518.19;5032683;28;20057;-70
2023/03/28 11:53:22;;;;;;;0.20;0.20;;;;;;;15.40;31.61;102512.41;5032996;28;20034;-71
2023/03/28 11:56:16;;;;;;;0.22;0.22;;;;;;;15.68;31.04;102503.97;5032730;28;20025;-71
2023/03/28 11:58:46;;;;;;;0.32;0.32;;;;;;;15.95;30.75;102504.59;4932657;29;20044;-71
2023/03/28 12:01:19;;;;;;;0.33;0.33;;;;;;;16.62;30.20;102502.78;4927147;28;20062;-71
2023/03/28 12:04:15;;;;;;;0.22;0.22;;;;;;;16.41;30.83;102499.63;4932530;29;20043;-71
2023/03/28 12:06:59;;;;;;;0.25;0.25;;;;;;;16.23;30.91;102488.72;4931864;29;20596;-71
2023/03/28 12:09:30;;;;;;;0.20;0.20;;;;;;;16.57;30.86;102486.31;4931883;29;20126;-71
2023/03/28 12:12:07;;;;;;;0.40;0.40;;;;;;;15.87;31.30;102488.59;4943576;29;20031;-70
2023/03/28 12:14:51;;;;;;;0.20;0.20;;;;;;;16.30;30.07;102489.47;4932586;29;20058;-71
2023/03/28 12:17:42;;;;;;;0.22;0.22;;;;;;;16.10;30.39;102481.53;4934796;29;20050;-70
2023/03/28 12:20:14;;;;;;;0.30;0.30;;;;;;;16.90;30.30;102477.84;4875460;29;20077;-70
2023/03/28 12:22:49;;;;;;;0.38;0.38;;;;;;;16.73;29.60;102471.31;4885846;29;20387;-69
2023/03/28 12:25:28;;;;;;;0.28;0.28;;;;;;;15.83;29.95;102477.38;4881571;29;20041;-71
2023/03/28 12:28:14;;;;;;;0.20;0.20;;;;;;;16.50;29.87;102463.88;4876390;29;20037;-71
2023/03/28 12:30:49;;;;;;;0.20;0.20;;;;;;;16.55;29.42;102464.00;4858914;29;20744;-70
2023/03/28 12:33:26;;;;;;;0.20;0.20;;;;;;;15.57;29.42;102464.00;4881721;29;20088;-70
2023/03/28 12:36:27;;;;;;;0.20;0.20;;;;;;;16.66;29.49;102463.28;4904000;29;20040;-71
2023/03/28 12:39:17;;;;;;;0.30;0.30;;;;;;;17.15;29.80;102442.41;4880381;29;20606;-70
2023/03/28 12:41:44;;;;;;;0.30;0.30;;;;;;;16.12;29.87;102443.31;4890274;29;20032;-71
2023/03/28 12:44:23;;;;;;;0.20;0.20;;;;;;;15.89;30.91;102446.66;4890215;29;20051;-73
2023/03/28 12:46:58;;;;;;;0.10;0.10;;;;;;;16.46;30.08;102437.34;4890705;29;20033;-70
2023/03/28 12:49:32;;;;;;;0.30;0.30;;;;;;;16.04;29.96;102441.72;4891057;29;20102;-70